Time;durP1;ratioP1;P1;durP2;ratioP2;P2;SDS_P1;SDS_P2;PMS_P1;PMS_P2;Temp;Humidity;BMP_temperature;BMP_pressure;BME280_temperature;BME280_humidity;BME280_pressure;Samples;Min_cycle;Max_cycle;Signal;HPM_P1;HPM_P2
2021/10/18 00:01:09;;;;;;;17.67;10.60;;;8.70;86.70;;;;;;5073353;28;20033;-37
2021/10/18 00:03:34;;;;;;;16.98;10.98;;;8.70;86.70;;;;;;5073406;28;20021;-38
2021/10/18 00:06:00;;;;;;;16.02;11.35;;;8.60;86.80;;;;;;5055273;28;20105;-37
2021/10/18 00:08:26;;;;;;;16.95;10.50;;;8.60;86.80;;;;;;5073222;28;20021;-37
2021/10/18 00:10:51;;;;;;;17.33;11.00;;;8.50;87.20;;;;;;5073193;28;20075;-37
2021/10/18 00:13:17;;;;;;;18.40;10.90;;;8.50;87.10;;;;;;5073013;28;20021;-37
2021/10/18 00:15:43;;;;;;;17.80;10.60;;;8.30;87.40;;;;;;5073362;28;20028;-37
2021/10/18 00:18:08;;;;;;;17.80;10.27;;;8.30;87.40;;;;;;5072975;28;20040;-37
2021/10/18 00:20:34;;;;;;;17.55;11.45;;;8.20;87.80;;;;;;5072962;28;20065;-37
2021/10/18 00:23:00;;;;;;;15.95;9.88;;;8.10;88.10;;;;;;5073060;28;20530;-37
2021/10/18 00:25:26;;;;;;;17.50;11.07;;;8.00;88.50;;;;;;5072918;28;20024;-38
2021/10/18 00:27:52;;;;;;;16.48;11.00;;;8.00;88.60;;;;;;5073362;28;20104;-36
2021/10/18 00:30:18;;;;;;;17.05;10.85;;;8.00;88.60;;;;;;5055677;28;20161;-36
2021/10/18 00:32:43;;;;;;;18.65;11.57;;;8.00;88.40;;;;;;5072875;28;20024;-37
2021/10/18 00:35:10;;;;;;;15.70;12.25;;;7.90;88.30;;;;;;5072931;28;20055;-37
2021/10/18 00:37:38;;;;;;;20.42;11.20;;;7.90;88.30;;;;;;5072980;28;20040;-37
2021/10/18 00:40:06;;;;;;;15.02;10.82;;;7.90;88.30;;;;;;5073203;28;20033;-37
2021/10/18 00:42:32;;;;;;;16.70;11.23;;;8.00;88.20;;;;;;5072765;28;20028;-38
2021/10/18 00:44:57;;;;;;;18.27;11.38;;;8.00;88.00;;;;;;5073152;28;20400;-37
2021/10/18 00:47:23;;;;;;;15.52;10.70;;;8.00;87.90;;;;;;5072876;28;20123;-37
2021/10/18 00:49:50;;;;;;;25.73;11.85;;;8.00;87.80;;;;;;5073267;28;20099;-37
2021/10/18 00:52:19;;;;;;;18.20;11.40;;;8.00;87.50;;;;;;5072804;28;20024;-37
2021/10/18 00:54:46;;;;;;;16.92;10.10;;;8.00;87.30;;;;;;5072867;28;20469;-37
2021/10/18 00:57:14;;;;;;;19.00;10.43;;;8.10;87.30;;;;;;5073163;28;20503;-37
2021/10/18 00:59:39;;;;;;;14.35;9.88;;;8.10;87.10;;;;;;5072453;28;20020;-38
2021/10/18 01:02:05;;;;;;;15.98;10.07;;;8.10;87.00;;;;;;5072808;28;20025;-37
2021/10/18 01:04:31;;;;;;;16.02;10.32;;;8.00;86.90;;;;;;5072483;28;20017;-37
2021/10/18 01:06:57;;;;;;;18.13;10.50;;;8.10;86.80;;;;;;5072852;28;20051;-37
2021/10/18 01:09:23;;;;;;;15.00;8.98;;;8.00;86.70;;;;;;5054376;28;20025;-37
2021/10/18 01:11:48;;;;;;;16.27;10.43;;;8.00;86.90;;;;;;5054436;28;20492;-37
2021/10/18 01:14:14;;;;;;;14.95;9.70;;;7.90;86.90;;;;;;5072355;28;20361;-37
2021/10/18 01:16:40;;;;;;;12.98;8.43;;;7.90;87.00;;;;;;5054212;28;20184;-38
2021/10/18 01:19:14;;;;;;;15.48;9.25;;;7.80;87.00;;;;;;5072293;28;20060;-37
2021/10/18 01:21:40;;;;;;;14.15;8.82;;;7.80;87.10;;;;;;5072552;28;20023;-37
2021/10/18 01:24:06;;;;;;;11.40;7.60;;;7.80;87.20;;;;;;5072444;28;20021;-38
2021/10/18 01:26:32;;;;;;;13.43;8.32;;;7.80;87.30;;;;;;5072799;28;20096;-36
2021/10/18 01:28:58;;;;;;;17.90;9.27;;;7.70;87.40;;;;;;5072202;28;20028;-39
2021/10/18 01:31:23;;;;;;;11.85;7.95;;;7.70;87.40;;;;;;5072192;28;20094;-36
2021/10/18 01:33:49;;;;;;;13.60;9.10;;;7.70;87.50;;;;;;5072059;28;20028;-36
2021/10/18 01:36:15;;;;;;;14.95;9.32;;;7.70;87.70;;;;;;5072658;28;20051;-37
2021/10/18 01:38:41;;;;;;;17.05;9.25;;;7.60;87.80;;;;;;5072281;28;20035;-37
2021/10/18 01:41:06;;;;;;;15.55;8.57;;;7.50;88.00;;;;;;5072647;28;20031;-36
2021/10/18 01:43:32;;;;;;;17.52;8.57;;;7.50;88.10;;;;;;5072336;28;20036;-36
2021/10/18 01:45:58;;;;;;;13.05;8.88;;;7.50;88.10;;;;;;5072352;28;20021;-36
2021/10/18 01:48:23;;;;;;;14.00;8.90;;;7.50;88.20;;;;;;5054660;28;20051;-36
2021/10/18 01:50:49;;;;;;;12.02;7.47;;;7.40;88.20;;;;;;5072224;28;20082;-36
2021/10/18 01:53:15;;;;;;;13.27;7.65;;;7.40;88.30;;;;;;5073984;28;20044;-36
2021/10/18 01:55:41;;;;;;;12.60;7.43;;;7.40;88.00;;;;;;5075996;28;20025;-36
2021/10/18 01:58:08;;;;;;;14.88;8.23;;;7.30;88.00;;;;;;5076291;28;20373;-38
2021/10/18 02:00:34;;;;;;;13.52;7.55;;;7.30;88.00;;;;;;5075831;28;20029;-37
2021/10/18 02:02:59;;;;;;;14.55;8.00;;;7.40;87.20;;;;;;5075720;28;20078;-37
2021/10/18 02:05:25;;;;;;;9.60;6.60;;;7.50;86.70;;;;;;5075556;28;20048;-36
2021/10/18 02:07:51;;;;;;;17.70;8.40;;;7.60;86.30;;;;;;5076104;28;20103;-36
2021/10/18 02:10:18;;;;;;;15.43;8.27;;;7.70;86.70;;;;;;5075564;28;20071;-37
2021/10/18 02:12:44;;;;;;;13.82;8.57;;;7.80;86.30;;;;;;5075830;28;20028;-37
2021/10/18 02:15:11;;;;;;;14.02;8.48;;;7.90;85.50;;;;;;5057431;28;20034;-36
2021/10/18 02:17:36;;;;;;;13.65;8.63;;;7.70;86.10;;;;;;5075457;28;20079;-37
2021/10/18 02:20:05;;;;;;;16.38;10.18;;;7.60;86.50;;;;;;5075113;28;20391;-36
2021/10/18 02:22:31;;;;;;;14.65;9.65;;;7.60;86.70;;;;;;5075575;28;20048;-36
2021/10/18 02:24:57;;;;;;;15.73;10.27;;;7.50;86.90;;;;;;5075429;28;20035;-36
2021/10/18 02:27:23;;;;;;;18.02;9.50;;;7.30;87.20;;;;;;5075339;28;20444;-36
2021/10/18 02:29:48;;;;;;;18.63;10.68;;;7.30;87.50;;;;;;5057069;28;20052;-36
2021/10/18 02:32:14;;;;;;;18.88;10.27;;;7.20;87.60;;;;;;5075494;28;20123;-37
2021/10/18 02:34:40;;;;;;;13.05;8.95;;;7.20;87.70;;;;;;5057085;28;20037;-37
2021/10/18 02:37:06;;;;;;;14.60;9.40;;;7.10;87.90;;;;;;5075005;28;20085;-37
2021/10/18 02:39:32;;;;;;;19.52;11.23;;;7.10;88.00;;;;;;5074898;28;20056;-36
2021/10/18 02:41:57;;;;;;;17.73;10.35;;;7.10;88.10;;;;;;5075248;28;20063;-36
2021/10/18 02:44:23;;;;;;;16.25;10.57;;;7.10;88.10;;;;;;5075403;28;20027;-37
2021/10/18 02:46:49;;;;;;;14.57;9.98;;;7.00;88.00;;;;;;5057146;28;20021;-36
2021/10/18 02:49:15;;;;;;;16.77;9.40;;;7.00;88.10;;;;;;5075687;28;20473;-36
2021/10/18 02:51:40;;;;;;;16.88;9.95;;;7.00;88.00;;;;;;5075025;28;20060;-38
2021/10/18 02:54:06;;;;;;;13.20;8.88;;;7.00;88.10;;;;;;5074706;28;20049;-37
2021/10/18 02:56:32;;;;;;;13.52;9.60;;;7.00;88.10;;;;;;5074661;28;20020;-37
2021/10/18 02:58:58;;;;;;;13.35;9.63;;;7.00;88.00;;;;;;5075026;28;20036;-36
2021/10/18 03:01:23;;;;;;;17.50;9.38;;;7.10;87.90;;;;;;5056578;28;20025;-37
2021/10/18 03:03:49;;;;;;;20.65;12.13;;;7.10;87.90;;;;;;5074198;28;20021;-37
2021/10/18 03:06:14;;;;;;;18.40;10.23;;;7.20;87.70;;;;;;5074195;28;20041;-38
2021/10/18 03:08:40;;;;;;;15.90;9.18;;;7.20;87.60;;;;;;5074746;28;20036;-37
2021/10/18 03:11:06;;;;;;;13.35;8.80;;;7.30;87.40;;;;;;5074700;28;20036;-37
2021/10/18 03:13:31;;;;;;;13.55;9.70;;;7.30;87.40;;;;;;5074652;28;20425;-38
2021/10/18 03:15:57;;;;;;;15.40;9.75;;;7.30;87.30;;;;;;5074585;28;20031;-38
2021/10/18 03:18:23;;;;;;;13.27;9.23;;;7.30;87.20;;;;;;5074110;28;20496;-38
2021/10/18 03:20:48;;;;;;;12.02;8.30;;;7.30;86.80;;;;;;5074188;28;20059;-37
2021/10/18 03:23:14;;;;;;;19.05;10.13;;;7.30;86.70;;;;;;5056280;28;20107;-37
2021/10/18 03:25:40;;;;;;;14.77;8.27;;;7.40;86.80;;;;;;5074072;28;20029;-37
2021/10/18 03:28:05;;;;;;;12.60;8.45;;;7.40;86.70;;;;;;5074153;28;20352;-37
2021/10/18 03:30:31;;;;;;;16.25;10.05;;;7.40;86.70;;;;;;5056117;28;20025;-37
2021/10/18 03:32:58;;;;;;;13.52;7.85;;;7.50;86.70;;;;;;5073940;28;20110;-37
2021/10/18 03:35:24;;;;;;;14.68;9.90;;;7.50;86.50;;;;;;5074175;28;20021;-37
2021/10/18 03:37:50;;;;;;;13.40;8.48;;;7.50;86.40;;;;;;5074118;28;20020;-37
2021/10/18 03:40:15;;;;;;;14.93;8.20;;;7.50;86.10;;;;;;5074111;28;20031;-37
2021/10/18 03:42:41;;;;;;;14.43;8.57;;;7.50;86.10;;;;;;5074011;28;20039;-37
2021/10/18 03:45:11;;;;;;;14.77;8.07;;;7.50;85.90;;;;;;5073935;28;20016;-37
2021/10/18 03:47:37;;;;;;;14.77;9.02;;;7.50;86.10;;;;;;5073877;28;20075;-38
2021/10/18 03:50:04;;;;;;;14.77;8.02;;;7.30;86.50;;;;;;5073691;28;20128;-38
2021/10/18 03:52:31;;;;;;;12.43;7.10;;;7.30;86.60;;;;;;5073836;28;20392;-37
2021/10/18 03:54:56;;;;;;;16.00;7.80;;;7.30;86.60;;;;;;5073753;28;20058;-37
2021/10/18 03:57:22;;;;;;;17.17;8.15;;;7.30;86.40;;;;;;5056088;28;20396;-37
2021/10/18 03:59:48;;;;;;;13.75;8.70;;;7.40;86.40;;;;;;5074095;28;20025;-36
2021/10/18 04:02:14;;;;;;;12.50;7.47;;;7.50;86.40;;;;;;5073814;28;20028;-37
2021/10/18 04:04:40;;;;;;;13.98;8.57;;;7.50;86.20;;;;;;5073204;28;20468;-36
2021/10/18 04:07:06;;;;;;;11.25;7.57;;;7.50;86.00;;;;;;5073677;28;20090;-36
2021/10/18 04:09:32;;;;;;;10.70;7.30;;;7.60;85.90;;;;;;5073194;28;20025;-36
2021/10/18 04:11:58;;;;;;;16.30;8.75;;;7.60;86.00;;;;;;5055693;28;20463;-36
2021/10/18 04:14:23;;;;;;;13.73;8.05;;;7.70;86.10;;;;;;5073177;28;20107;-37
2021/10/18 04:16:49;;;;;;;15.10;8.85;;;7.70;86.00;;;;;;5073096;28;20423;-37
2021/10/18 04:19:15;;;;;;;13.02;8.13;;;7.80;86.00;;;;;;5073097;28;20076;-37
2021/10/18 04:21:41;;;;;;;10.27;7.65;;;7.80;86.00;;;;;;5073102;28;20420;-38
2021/10/18 04:24:06;;;;;;;11.07;8.18;;;7.80;85.90;;;;;;5073005;28;20025;-37
2021/10/18 04:26:32;;;;;;;14.07;8.18;;;7.80;85.70;;;;;;5073037;28;20025;-38
2021/10/18 04:28:58;;;;;;;12.40;8.85;;;7.80;85.70;;;;;;5054980;28;20021;-37
2021/10/18 04:31:28;;;;;;;10.95;7.50;;;7.80;85.50;;;;;;5072981;28;20032;-38
2021/10/18 04:33:57;;;;;;;;;;;7.90;85.60;;;;;;5073671;28;20375;-37
2021/10/18 04:36:23;;;;;;;12.32;7.75;;;8.00;85.60;;;;;;5073163;28;20311;-37
2021/10/18 04:38:50;;;;;;;12.75;7.70;;;8.10;84.70;;;;;;5072884;28;20027;-37
2021/10/18 04:41:15;;;;;;;11.02;7.80;;;8.00;85.20;;;;;;5072839;28;20070;-36
2021/10/18 04:43:41;;;;;;;16.95;8.88;;;8.00;85.50;;;;;;5073320;28;20021;-36
2021/10/18 04:46:07;;;;;;;14.63;8.48;;;7.90;85.40;;;;;;5072714;28;20089;-36
2021/10/18 04:48:32;;;;;;;14.55;7.13;;;8.00;85.50;;;;;;5072971;28;20494;-36
2021/10/18 04:50:58;;;;;;;14.80;7.50;;;8.00;85.30;;;;;;5072691;28;20021;-36
2021/10/18 04:53:24;;;;;;;9.38;7.47;;;8.00;85.50;;;;;;5072988;28;20029;-36
2021/10/18 04:56:12;;;;;;;10.65;7.63;;;7.90;85.60;;;;;;5075266;28;20048;-36
2021/10/18 04:58:38;;;;;;;11.30;7.70;;;7.90;85.70;;;;;;5064609;28;20115;-36
2021/10/18 05:01:04;;;;;;;11.93;8.07;;;7.90;86.00;;;;;;5072735;28;20063;-36
2021/10/18 05:03:30;;;;;;;17.23;8.95;;;7.90;86.10;;;;;;5072646;28;20025;-37
2021/10/18 05:05:55;;;;;;;14.48;7.93;;;7.90;86.00;;;;;;5072571;28;20044;-37
2021/10/18 05:08:21;;;;;;;13.50;8.77;;;8.00;85.90;;;;;;5054666;28;20017;-37
2021/10/18 05:10:47;;;;;;;13.05;8.52;;;8.00;85.60;;;;;;5072533;28;20197;-37
2021/10/18 05:13:15;;;;;;;13.45;8.48;;;8.10;85.60;;;;;;5054259;28;20069;-37
2021/10/18 05:15:41;;;;;;;13.18;7.78;;;8.10;85.50;;;;;;5054619;28;20056;-37
2021/10/18 05:18:06;;;;;;;11.32;7.60;;;8.10;85.10;;;;;;5054475;28;20021;-37
2021/10/18 05:20:33;;;;;;;15.27;7.97;;;8.20;85.40;;;;;;5072395;28;20052;-37
2021/10/18 05:23:00;;;;;;;16.48;9.15;;;8.10;85.10;;;;;;5072735;28;20021;-37
2021/10/18 05:25:27;;;;;;;15.20;9.52;;;8.00;85.40;;;;;;5072375;28;20028;-37
2021/10/18 05:27:53;;;;;;;15.10;8.68;;;8.20;85.20;;;;;;5073327;28;20085;-37
2021/10/18 05:30:24;;;;;;;13.32;8.25;;;8.10;85.00;;;;;;5076165;28;20066;-37
2021/10/18 05:32:54;;;;;;;15.32;8.65;;;8.10;85.10;;;;;;5076294;28;20047;-37
2021/10/18 05:35:20;;;;;;;15.38;8.48;;;8.00;84.90;;;;;;5076165;28;20031;-37
2021/10/18 05:37:47;;;;;;;16.23;8.55;;;8.10;85.00;;;;;;5076308;28;20384;-37
2021/10/18 05:40:14;;;;;;;16.05;8.55;;;8.10;85.30;;;;;;5076170;28;20054;-37
2021/10/18 05:42:40;;;;;;;14.27;8.05;;;8.00;85.50;;;;;;5076127;28;20086;-37
2021/10/18 05:45:07;;;;;;;13.90;8.75;;;8.00;85.30;;;;;;5076357;28;20029;-37
2021/10/18 05:47:32;;;;;;;15.13;8.63;;;7.90;85.20;;;;;;5075948;28;20025;-37
2021/10/18 05:49:59;;;;;;;11.52;7.97;;;7.90;85.30;;;;;;5076310;28;20032;-37
2021/10/18 05:52:27;;;;;;;14.50;8.45;;;7.80;85.50;;;;;;5075721;28;20048;-37
2021/10/18 05:54:53;;;;;;;10.85;7.18;;;7.80;85.80;;;;;;5058270;28;20452;-37
2021/10/18 05:57:19;;;;;;;18.00;7.85;;;7.80;85.70;;;;;;5075691;28;20457;-37
2021/10/18 05:59:45;;;;;;;11.63;7.13;;;7.80;85.40;;;;;;5075619;28;20073;-37
2021/10/18 06:02:10;;;;;;;15.80;7.45;;;7.70;85.40;;;;;;5075884;28;20032;-37
2021/10/18 06:04:41;;;;;;;9.73;7.22;;;7.70;85.60;;;;;;5058045;28;20453;-36
2021/10/18 06:07:07;;;;;;;11.80;7.28;;;7.70;85.60;;;;;;5058126;28;20345;-37
2021/10/18 06:09:33;;;;;;;12.02;7.80;;;7.70;85.70;;;;;;5075501;28;20032;-37
2021/10/18 06:11:59;;;;;;;9.90;7.15;;;7.70;85.70;;;;;;5075448;28;20048;-37
2021/10/18 06:14:24;;;;;;;12.07;8.18;;;7.70;85.90;;;;;;5075408;28;20099;-37
2021/10/18 06:16:50;;;;;;;20.20;8.70;;;7.70;85.70;;;;;;5075512;28;20376;-37
2021/10/18 06:19:16;;;;;;;15.05;7.75;;;7.80;85.30;;;;;;5075498;28;20372;-37
2021/10/18 06:21:41;;;;;;;11.32;7.63;;;7.80;85.40;;;;;;5075317;28;20431;-37
2021/10/18 06:24:07;;;;;;;15.05;8.38;;;7.80;85.40;;;;;;5075625;28;20108;-37
2021/10/18 06:26:33;;;;;;;16.92;8.20;;;7.80;85.40;;;;;;5075038;28;20016;-37
2021/10/18 06:28:59;;;;;;;17.80;7.70;;;7.90;85.30;;;;;;5076426;28;20039;-37
2021/10/18 06:31:25;;;;;;;17.27;8.65;;;7.90;85.10;;;;;;5057460;28;20384;-38
2021/10/18 06:33:50;;;;;;;20.33;8.18;;;7.90;84.60;;;;;;5075311;28;20365;-37
2021/10/18 06:36:16;;;;;;;18.55;8.55;;;8.00;84.60;;;;;;5075296;28;20074;-38
2021/10/18 06:38:42;;;;;;;19.70;10.00;;;8.20;84.30;;;;;;5074925;28;20033;-37
2021/10/18 06:41:07;;;;;;;22.50;9.32;;;8.10;83.90;;;;;;5074774;28;20016;-37
2021/10/18 06:43:33;;;;;;;15.43;7.97;;;8.10;84.10;;;;;;5075160;28;20107;-37
2021/10/18 06:45:59;;;;;;;20.25;7.28;;;8.10;84.30;;;;;;5075220;28;20021;-36
2021/10/18 06:48:25;;;;;;;13.23;7.28;;;8.10;84.10;;;;;;5056898;28;20020;-38
2021/10/18 06:50:51;;;;;;;11.98;6.95;;;8.10;83.90;;;;;;5057076;28;20063;-38
2021/10/18 06:53:18;;;;;;;22.50;8.52;;;8.10;83.80;;;;;;5074862;28;20049;-37
2021/10/18 06:55:45;;;;;;;24.92;9.18;;;8.20;83.80;;;;;;5074711;28;20021;-38
2021/10/18 06:58:11;;;;;;;17.95;8.93;;;8.30;83.60;;;;;;5074458;28;20025;-37
2021/10/18 07:00:37;;;;;;;20.40;8.52;;;8.30;83.60;;;;;;5056263;28;20480;-37
2021/10/18 07:03:03;;;;;;;24.73;9.05;;;8.30;83.60;;;;;;5074780;28;20027;-37
2021/10/18 07:05:29;;;;;;;20.58;9.45;;;8.30;83.30;;;;;;5074329;28;20408;-36
2021/10/18 07:07:55;;;;;;;19.05;9.70;;;8.30;83.30;;;;;;5056580;28;20381;-38
2021/10/18 07:10:21;;;;;;;17.38;8.80;;;8.40;83.40;;;;;;5074241;28;20021;-36
2021/10/18 07:12:47;;;;;;;23.83;9.88;;;8.50;83.30;;;;;;5074359;28;20024;-38
2021/10/18 07:15:12;;;;;;;16.75;8.15;;;8.50;83.30;;;;;;5074392;28;20537;-38
2021/10/18 07:17:38;;;;;;;22.10;9.07;;;8.50;83.20;;;;;;5075132;28;20132;-37
2021/10/18 07:20:05;;;;;;;21.38;9.50;;;8.50;83.30;;;;;;5074036;28;20333;-36
2021/10/18 07:22:41;;;;;;;19.77;8.73;;;8.60;83.10;;;;;;5073995;28;20025;-36
2021/10/18 07:25:07;;;;;;;27.10;11.90;;;8.80;82.40;;;;;;5074751;28;20108;-37
2021/10/18 07:27:32;;;;;;;21.63;10.23;;;9.00;81.80;;;;;;5055998;28;20067;-37
2021/10/18 07:29:58;;;;;;;22.48;10.73;;;9.20;81.20;;;;;;5074388;28;20033;-38
2021/10/18 07:32:24;;;;;;;27.80;11.25;;;9.30;80.50;;;;;;5074097;28;20048;-37
2021/10/18 07:34:50;;;;;;;22.52;10.82;;;9.40;80.70;;;;;;5074480;28;20024;-37
2021/10/18 07:37:18;;;;;;;27.52;12.75;;;9.40;80.50;;;;;;5073982;28;20028;-38
2021/10/18 07:39:44;;;;;;;17.65;8.25;;;9.50;80.40;;;;;;5073909;28;20101;-38
2021/10/18 07:42:14;;;;;;;16.00;9.52;;;9.60;80.10;;;;;;5055863;28;20059;-37
2021/10/18 07:44:40;;;;;;;17.63;8.45;;;9.80;79.70;;;;;;5055851;28;20395;-38
2021/10/18 07:47:06;;;;;;;17.65;9.30;;;10.00;78.90;;;;;;5073828;28;20017;-39
2021/10/18 07:49:36;;;;;;;14.73;8.48;;;10.10;78.90;;;;;;5073613;28;20419;-37
2021/10/18 07:52:03;;;;;;;14.57;8.13;;;10.30;78.10;;;;;;5073312;28;20044;-38
2021/10/18 07:54:30;;;;;;;21.52;7.85;;;10.70;76.80;;;;;;5073713;28;20271;-38
2021/10/18 07:56:56;;;;;;;14.02;7.40;;;10.70;76.30;;;;;;5073671;28;20413;-38
2021/10/18 07:59:22;;;;;;;12.45;7.10;;;10.80;76.10;;;;;;5072981;28;20361;-37
2021/10/18 08:01:47;;;;;;;12.23;6.78;;;10.80;75.90;;;;;;5038926;28;20226;-37
2021/10/18 08:04:13;;;;;;;13.27;7.05;;;10.90;75.70;;;;;;5073572;28;20039;-38
2021/10/18 08:06:39;;;;;;;17.52;7.40;;;11.10;74.80;;;;;;5072884;28;20395;-37
2021/10/18 08:09:07;;;;;;;17.63;7.40;;;11.20;74.90;;;;;;5072930;28;20025;-37
2021/10/18 08:11:33;;;;;;;11.65;6.18;;;11.70;72.70;;;;;;5072790;28;20043;-37
2021/10/18 08:13:59;;;;;;;15.90;7.13;;;12.20;71.80;;;;;;5072937;28;20104;-38
2021/10/18 08:16:26;;;;;;;18.83;7.10;;;12.30;71.10;;;;;;5076257;28;20076;-41
2021/10/18 08:18:52;;;;;;;11.10;6.15;;;12.70;70.20;;;;;;5079894;28;20488;-50
2021/10/18 08:21:18;;;;;;;14.30;9.20;;;13.10;68.40;;;;;;5055139;28;20046;-48
2021/10/18 08:23:44;;;;;;;14.52;6.50;;;13.40;66.60;;;;;;5073079;28;20028;-50
2021/10/18 08:26:10;;;;;;;14.45;8.82;;;12.80;68.70;;;;;;5074345;28;20107;-47
2021/10/18 08:28:36;;;;;;;12.80;6.97;;;13.10;68.70;;;;;;5072881;28;20021;-48
2021/10/18 08:31:02;;;;;;;12.27;7.57;;;12.80;68.20;;;;;;5074923;28;20442;-47
2021/10/18 08:33:28;;;;;;;16.42;6.65;;;13.20;68.80;;;;;;5073549;28;20070;-47
2021/10/18 08:35:53;;;;;;;12.75;7.00;;;13.90;66.30;;;;;;5072637;28;20384;-48
2021/10/18 08:39:57;;;;;;;10.70;6.30;;;14.20;64.50;;;;;;5073048;28;20028;-46
2021/10/18 08:41:56;;;;;;;11.30;6.70;;;14.00;65.40;;;;;;5063960;28;20036;-46
2021/10/18 08:46:39;;;;;;;14.90;6.35;;;13.20;67.80;;;;;;5058583;28;20043;-47
2021/10/18 08:49:04;;;;;;;11.75;7.13;;;13.10;68.80;;;;;;5072972;28;20029;-48
2021/10/18 08:51:30;;;;;;;14.05;7.10;;;13.10;68.90;;;;;;5073093;28;20074;-47
2021/10/18 08:53:56;;;;;;;8.98;6.03;;;13.70;67.50;;;;;;5072286;28;20024;-47
2021/10/18 08:56:22;;;;;;;15.48;7.18;;;14.20;64.50;;;;;;5072356;28;20029;-47
2021/10/18 08:58:49;;;;;;;11.35;7.90;;;14.10;64.90;;;;;;5054424;28;20043;-46
2021/10/18 09:01:15;;;;;;;10.43;5.80;;;14.00;66.20;;;;;;5072926;28;20024;-48
2021/10/18 09:03:41;;;;;;;11.02;6.47;;;14.40;63.90;;;;;;5074966;28;20090;-47
2021/10/18 09:06:24;;;;;;;16.42;6.38;;;14.10;65.00;;;;;;5076097;28;20048;-47
2021/10/18 09:08:52;;;;;;;13.75;6.10;;;14.50;63.90;;;;;;5077051;28;20039;-47
2021/10/18 09:11:26;;;;;;;12.30;6.35;;;14.30;63.80;;;;;;5076527;28;20039;-50
2021/10/18 09:13:52;;;;;;;11.20;6.45;;;14.20;64.20;;;;;;5076277;28;20145;-48
2021/10/18 09:16:28;;;;;;;14.00;6.53;;;14.30;64.20;;;;;;5075720;28;20047;-50
2021/10/18 09:19:05;;;;;;;11.10;6.60;;;14.60;63.80;;;;;;5076613;28;20025;-48
2021/10/18 09:21:34;;;;;;;10.52;5.85;;;14.90;62.30;;;;;;5058674;28;20017;-50
2021/10/18 09:24:01;;;;;;;9.90;5.90;;;14.50;63.40;;;;;;5075955;28;20020;-48
2021/10/18 09:26:28;;;;;;;12.35;6.07;;;15.10;61.20;;;;;;5076125;28;20116;-48
2021/10/18 09:28:55;;;;;;;14.18;5.65;;;15.20;60.90;;;;;;5078197;28;20423;-46
2021/10/18 09:31:21;;;;;;;9.57;6.57;;;14.80;61.70;;;;;;5075533;28;20113;-46
2021/10/18 09:33:58;;;;;;;7.13;5.22;;;14.70;62.60;;;;;;5075474;28;20501;-47
2021/10/18 09:36:32;;;;;;;9.73;5.90;;;14.80;62.60;;;;;;5075663;28;20029;-46
2021/10/18 09:39:15;;;;;;;12.25;6.35;;;15.30;60.80;;;;;;5075508;28;20040;-47
2021/10/18 09:41:58;;;;;;;18.80;8.45;;;15.20;60.90;;;;;;5075438;28;20473;-50
2021/10/18 09:44:48;;;;;;;15.18;6.00;;;15.40;59.70;;;;;;5076088;28;20021;-47
2021/10/18 10:52:56;;;;;;;6.90;4.10;;;15.80;56.90;;;;;;5075017;28;20039;-47
2021/10/18 10:55:28;;;;;;;8.63;4.93;;;16.30;56.00;;;;;;5073797;28;20055;-49
2021/10/18 10:57:57;;;;;;;9.60;5.22;;;16.60;54.30;;;;;;5074353;28;20024;-48
2021/10/18 11:00:40;;;;;;;7.13;3.75;;;16.80;54.20;;;;;;5074376;28;20036;-47
2021/10/18 11:03:30;;;;;;;9.77;4.38;;;16.70;53.90;;;;;;5074189;28;20032;-47
2021/10/18 11:06:04;;;;;;;7.30;5.10;;;16.80;53.30;;;;;;5074383;28;20400;-49
2021/10/18 11:08:34;;;;;;;8.07;4.40;;;16.30;54.30;;;;;;5074549;28;20050;-49
2021/10/18 11:11:16;;;;;;;6.65;3.95;;;16.60;53.30;;;;;;5074400;28;20063;-48
2021/10/18 11:13:54;;;;;;;8.52;3.90;;;17.10;51.80;;;;;;5074285;28;20083;-48
2021/10/18 11:16:23;;;;;;;9.60;3.70;;;16.80;52.40;;;;;;5073975;28;20044;-48
2021/10/18 11:18:53;;;;;;;5.55;3.67;;;17.10;52.00;;;;;;5074420;28;20032;-47
2021/10/18 11:21:22;;;;;;;6.80;4.07;;;17.40;50.80;;;;;;5073395;28;20051;-47
2021/10/18 11:24:04;;;;;;;5.95;4.00;;;17.30;50.90;;;;;;5073334;28;20021;-49
2021/10/18 11:26:39;;;;;;;7.85;3.88;;;17.00;51.30;;;;;;5073261;28;20066;-50
2021/10/18 11:29:10;;;;;;;11.95;3.75;;;16.40;52.60;;;;;;5073511;28;20054;-49
2021/10/18 11:31:41;;;;;;;5.75;3.90;;;16.30;53.30;;;;;;5073428;28;20024;-50
2021/10/18 11:34:13;;;;;;;10.48;3.92;;;16.70;52.20;;;;;;5073403;28;20036;-48
2021/10/18 11:36:41;;;;;;;5.18;3.20;;;16.80;52.40;;;;;;5055475;28;20027;-50
2021/10/18 11:39:31;;;;;;;6.70;3.20;;;16.30;52.80;;;;;;5073352;28;20024;-48
2021/10/18 11:42:09;;;;;;;6.18;3.65;;;16.30;53.20;;;;;;5072760;28;20068;-49
2021/10/18 11:44:42;;;;;;;8.35;3.78;;;16.50;52.40;;;;;;5073655;28;20077;-47
2021/10/18 11:47:26;;;;;;;6.07;3.00;;;16.30;53.50;;;;;;5073516;28;20021;-51
2021/10/18 11:50:11;;;;;;;14.38;4.20;;;16.10;54.40;;;;;;5073758;28;20036;-47
2021/10/18 11:52:52;;;;;;;7.93;3.95;;;16.30;53.80;;;;;;5073754;28;20040;-49
2021/10/18 11:55:30;;;;;;;11.07;4.30;;;16.50;53.40;;;;;;5073464;28;20055;-48
2021/10/18 11:57:58;;;;;;;8.88;3.53;;;16.40;54.20;;;;;;5072944;28;20035;-46
2021/10/18 12:00:26;;;;;;;6.93;3.55;;;16.70;53.60;;;;;;5054454;28;20082;-49
2021/10/18 12:02:53;;;;;;;6.18;3.80;;;16.70;53.40;;;;;;5073191;28;20052;-49
2021/10/18 12:05:19;;;;;;;11.60;4.63;;;16.80;53.90;;;;;;5055041;28;20068;-48
2021/10/18 12:07:50;;;;;;;8.98;4.18;;;16.70;53.30;;;;;;5055148;28;20055;-49
2021/10/18 12:10:22;;;;;;;7.50;4.68;;;16.60;53.20;;;;;;5072456;28;20437;-49
2021/10/18 12:13:18;;;;;;;6.97;4.30;;;16.50;53.40;;;;;;5072295;28;20029;-49
2021/10/18 12:15:47;;;;;;;8.82;4.18;;;16.40;54.20;;;;;;5073299;28;20150;-48
2021/10/18 12:18:15;;;;;;;4.32;3.35;;;16.60;54.00;;;;;;5073360;28;20480;-49
2021/10/18 12:20:46;;;;;;;5.88;3.58;;;16.30;54.60;;;;;;5054801;28;20028;-47
2021/10/18 12:23:17;;;;;;;8.13;3.75;;;16.30;55.00;;;;;;5055375;28;20502;-47
2021/10/18 12:25:55;;;;;;;6.28;4.43;;;16.30;55.60;;;;;;5054880;28;20023;-47
2021/10/18 12:28:30;;;;;;;5.60;3.78;;;16.60;55.10;;;;;;5072907;28;20036;-48
2021/10/18 12:31:01;;;;;;;7.22;3.50;;;16.60;55.10;;;;;;5072827;28;20029;-47
2021/10/18 12:33:39;;;;;;;7.35;3.90;;;16.60;54.10;;;;;;5073050;28;20103;-46
2021/10/18 12:36:06;;;;;;;11.88;4.05;;;16.70;54.40;;;;;;5072992;28;20032;-48
2021/10/18 12:38:39;;;;;;;7.78;3.50;;;16.80;53.90;;;;;;5055038;28;20040;-52
2021/10/18 12:41:17;;;;;;;5.25;2.92;;;16.70;53.40;;;;;;5072779;28;20368;-48
2021/10/18 12:43:46;;;;;;;4.40;2.88;;;16.70;53.30;;;;;;5038583;28;20085;-48
2021/10/18 12:46:19;;;;;;;4.47;3.42;;;16.70;53.30;;;;;;5037752;28;20032;-47
2021/10/18 12:49:02;;;;;;;5.40;2.75;;;16.90;52.70;;;;;;5072774;28;20475;-50
2021/10/18 12:51:35;;;;;;;4.50;3.33;;;16.80;52.20;;;;;;5072782;28;20021;-47
2021/10/18 12:54:22;;;;;;;4.10;3.05;;;16.80;53.10;;;;;;5072492;28;20037;-47
2021/10/18 12:56:59;;;;;;;8.93;3.60;;;16.80;53.90;;;;;;5072214;28;20044;-46
2021/10/18 12:59:25;;;;;;;12.75;4.20;;;17.20;52.10;;;;;;5072291;28;20111;-51
2021/10/18 13:02:16;;;;;;;5.88;2.95;;;17.20;52.00;;;;;;5072402;28;20052;-48
2021/10/18 13:05:02;;;;;;;5.32;2.95;;;17.00;53.40;;;;;;5055214;28;20166;-49
2021/10/18 13:07:29;;;;;;;7.35;3.60;;;16.80;53.50;;;;;;5072479;28;20044;-48
2021/10/18 13:09:54;;;;;;;8.90;3.65;;;16.70;54.40;;;;;;5053706;28;20029;-52
2021/10/18 13:12:22;;;;;;;7.90;3.30;;;16.80;54.10;;;;;;5053920;28;20077;-49
2021/10/18 13:14:48;;;;;;;5.57;3.25;;;17.10;53.60;;;;;;5054073;28;20048;-51
2021/10/18 13:17:14;;;;;;;6.32;3.40;;;17.10;54.00;;;;;;5072277;28;20476;-47
2021/10/18 13:19:40;;;;;;;5.28;2.80;;;17.00;53.70;;;;;;5072111;28;20476;-51
2021/10/18 13:22:05;;;;;;;5.72;3.03;;;16.80;54.20;;;;;;5054345;28;20085;-48
2021/10/18 13:24:31;;;;;;;6.07;2.90;;;16.90;53.40;;;;;;5072459;28;20040;-46
2021/10/18 13:26:57;;;;;;;5.70;3.47;;;17.10;53.30;;;;;;5054721;28;20021;-49
2021/10/18 13:29:24;;;;;;;7.53;3.47;;;17.10;53.80;;;;;;5054411;28;20044;-48
2021/10/18 13:31:50;;;;;;;3.33;2.60;;;16.90;54.30;;;;;;5053712;28;20115;-48
2021/10/18 13:34:16;;;;;;;5.43;2.72;;;16.90;53.90;;;;;;5072151;28;20118;-48
2021/10/18 13:36:41;;;;;;;6.63;3.15;;;16.80;53.90;;;;;;5072106;28;20029;-48
2021/10/18 13:39:07;;;;;;;6.50;3.97;;;16.80;54.00;;;;;;5054078;28;20078;-47
2021/10/18 13:41:33;;;;;;;6.72;3.15;;;16.70;54.80;;;;;;5072552;28;20372;-48
2021/10/18 13:44:08;;;;;;;5.53;3.25;;;16.80;55.10;;;;;;5072900;28;20025;-46
2021/10/18 13:46:39;;;;;;;7.47;3.17;;;16.80;55.50;;;;;;5073326;28;20051;-47
2021/10/18 13:49:06;;;;;;;7.65;3.83;;;16.80;55.30;;;;;;5059178;28;20492;-48
2021/10/18 13:51:32;;;;;;;3.97;2.83;;;16.60;55.50;;;;;;5079483;28;20091;-47
2021/10/18 13:53:58;;;;;;;4.82;2.78;;;16.50;56.30;;;;;;5059481;28;20024;-54
2021/10/18 13:56:24;;;;;;;6.15;3.38;;;16.40;56.70;;;;;;5075417;28;20388;-49